createdAt,value
2019-04-14T00:00:27.267Z,86.40
2019-04-14T00:03:08.661Z,86.30
2019-04-14T00:05:38.608Z,86.15
2019-04-14T00:08:09.108Z,86.41
2019-04-14T00:10:38.486Z,86.53
2019-04-14T00:13:08.979Z,86.53
2019-04-14T00:15:42.700Z,86.49
2019-04-14T00:18:09.714Z,86.38
2019-04-14T00:20:39.103Z,86.33
2019-04-14T00:23:08.822Z,86.26
2019-04-14T00:25:39.081Z,86.30
2019-04-14T00:28:09.495Z,86.24
2019-04-14T00:30:40.426Z,86.42
2019-04-14T00:33:28.108Z,86.51
2019-04-14T00:36:15.451Z,86.55
2019-04-14T00:38:47.807Z,86.37
2019-04-14T00:41:39.425Z,86.43
2019-04-14T00:44:07.996Z,86.43
2019-04-14T00:46:51.710Z,86.54
2019-04-14T00:49:22.148Z,86.79
2019-04-14T00:51:52.713Z,87.11
2019-04-14T00:54:22.303Z,87.33
2019-04-14T00:56:52.106Z,87.40
2019-04-14T00:59:22.262Z,87.40
2019-04-14T01:01:52.500Z,87.54
2019-04-14T01:04:22.954Z,87.71
2019-04-14T01:06:53.350Z,87.75
2019-04-14T01:09:23.976Z,87.85
2019-04-14T01:11:53.404Z,87.80
2019-04-14T01:14:23.298Z,87.76
2019-04-14T01:16:53.839Z,87.63
2019-04-14T01:19:24.442Z,87.69
2019-04-14T01:21:54.599Z,87.71
2019-04-14T01:24:24.988Z,87.91
2019-04-14T01:26:55.004Z,87.91
2019-04-14T01:29:25.420Z,87.64
2019-04-14T01:31:55.771Z,87.61
2019-04-14T01:34:26.011Z,87.47
2019-04-14T01:36:56.141Z,87.29
2019-04-14T01:39:26.528Z,87.15
2019-04-14T01:41:56.514Z,86.96
2019-04-14T01:44:28.435Z,86.77
2019-04-14T01:46:58.796Z,86.67
2019-04-14T01:49:29.143Z,86.61
2019-04-14T01:52:10.308Z,86.57
2019-04-14T01:54:41.334Z,86.58
2019-04-14T01:57:24.343Z,86.65
2019-04-14T01:59:54.663Z,86.84
2019-04-14T02:02:27.019Z,87.04
2019-04-14T02:04:57.697Z,87.11
2019-04-14T02:07:27.695Z,87.17
2019-04-14T02:09:59.411Z,87.15
2019-04-14T02:12:30.199Z,87.06
2019-04-14T02:15:00.492Z,87.08
2019-04-14T02:17:30.737Z,87.08
2019-04-14T02:20:01.179Z,87.06
2019-04-14T02:22:31.265Z,87.03
2019-04-14T02:25:01.501Z,86.91
2019-04-14T02:27:31.717Z,86.89
2019-04-14T02:30:03.550Z,86.84
2019-04-14T02:33:07.310Z,86.82
2019-04-14T02:35:37.283Z,86.71
2019-04-14T02:38:18.203Z,86.67
2019-04-14T02:43:14.539Z,86.67
2019-04-14T02:45:46.723Z,86.70
2019-04-14T02:48:35.400Z,86.73
2019-04-14T02:50:42.177Z,86.66
2019-04-14T02:53:18.081Z,86.64
2019-04-14T02:55:49.485Z,86.66
2019-04-14T02:58:24.634Z,86.65
2019-04-14T03:00:55.046Z,86.61
2019-04-14T03:03:24.082Z,86.60
2019-04-14T03:05:53.705Z,86.68
2019-04-14T03:08:26.348Z,86.79
2019-04-14T03:10:56.002Z,86.85
2019-04-14T03:13:29.229Z,86.87
2019-04-14T03:16:04.087Z,86.85
2019-04-14T03:18:47.254Z,86.90
2019-04-14T03:21:26.267Z,86.98
2019-04-14T03:24:12.677Z,87.01
2019-04-14T03:26:47.423Z,87.07
2019-04-14T03:29:32.404Z,87.13
2019-04-14T03:32:11.462Z,87.19
2019-04-14T03:34:42.982Z,87.24
2019-04-14T03:44:41.475Z,87.38
2019-04-14T03:47:13.515Z,87.40
2019-04-14T03:49:52.435Z,87.48
2019-04-14T03:52:34.964Z,87.63
2019-04-14T03:54:34.987Z,87.70
2019-04-14T03:56:51.578Z,87.80
2019-04-14T03:59:21.881Z,87.89
2019-04-14T04:01:52.244Z,87.86
2019-04-14T04:04:22.769Z,87.87
2019-04-14T04:06:53.161Z,87.87
2019-04-14T04:09:25.630Z,87.88
2019-04-14T04:11:56.359Z,87.85
2019-04-14T04:14:27.003Z,87.85
2019-04-14T04:16:59.509Z,87.82
2019-04-14T04:19:49.239Z,87.83
2019-04-14T04:22:24.448Z,87.91
2019-04-14T04:25:01.264Z,87.99
2019-04-14T04:27:48.390Z,88.05
2019-04-14T04:30:23.153Z,88.04
2019-04-14T04:32:54.188Z,88.01
2019-04-14T04:35:43.674Z,88.07
2019-04-14T04:38:15.881Z,88.10
2019-04-14T04:40:46.160Z,88.24
2019-04-14T04:43:16.842Z,88.42
2019-04-14T04:45:47.365Z,88.64
2019-04-14T04:48:19.667Z,88.76
2019-04-14T04:50:49.889Z,88.89
2019-04-14T04:53:22.367Z,88.96
2019-04-14T04:55:52.487Z,89.11
2019-04-14T04:58:22.180Z,89.21
2019-04-14T05:00:53.963Z,89.21
2019-04-14T05:03:23.334Z,89.27
2019-04-14T05:06:20.163Z,89.37
2019-04-14T05:08:52.349Z,89.52
2019-04-14T05:11:29.531Z,89.63
2019-04-14T05:14:00.864Z,89.78
2019-04-14T05:16:30.296Z,89.84
2019-04-14T05:19:12.017Z,89.92
2019-04-14T05:21:32.063Z,90.03
2019-04-14T05:24:02.749Z,90.19
2019-04-14T05:26:33.109Z,90.36
2019-04-14T05:29:03.577Z,90.37
2019-04-14T05:31:33.654Z,90.53
2019-04-14T05:34:04.311Z,90.59
2019-04-14T05:36:34.926Z,90.68
2019-04-14T05:39:06.813Z,90.70
2019-04-14T05:41:37.571Z,90.82
2019-04-14T05:44:07.919Z,90.86
2019-04-14T05:46:38.147Z,90.95
2019-04-14T05:49:08.576Z,90.98
2019-04-14T05:51:37.995Z,90.98
2019-04-14T05:54:07.864Z,91.15
2019-04-14T05:56:39.114Z,91.22
2019-04-14T05:59:08.893Z,91.12
2019-04-14T06:01:39.216Z,91.19
2019-04-14T06:04:09.761Z,91.27
2019-04-14T06:06:39.137Z,91.15
2019-04-14T06:09:08.894Z,90.82
2019-04-14T06:11:39.535Z,90.45
2019-04-14T06:14:09.005Z,90.02
2019-04-14T06:16:39.671Z,89.66
2019-04-14T06:19:09.055Z,89.34
2019-04-14T06:21:39.558Z,89.08
2019-04-14T06:24:08.929Z,88.74
2019-04-14T06:26:39.068Z,88.46
2019-04-14T06:29:09.577Z,87.67
2019-04-14T06:31:49.432Z,87.24
2019-04-14T06:34:30.395Z,87.06
2019-04-14T06:39:54.862Z,84.92
2019-04-14T06:42:24.227Z,85.08
2019-04-14T06:44:55.247Z,84.37
2019-04-14T06:47:24.935Z,83.93
2019-04-14T06:49:54.653Z,83.31
2019-04-14T06:52:25.515Z,82.38
2019-04-14T06:54:54.943Z,81.78
2019-04-14T06:57:25.017Z,81.52
2019-04-14T06:59:54.692Z,80.69
2019-04-14T07:02:24.082Z,80.27
2019-04-14T07:04:53.762Z,78.93
2019-04-14T07:07:23.160Z,79.36
2019-04-14T07:09:53.002Z,78.48
2019-04-14T07:12:22.674Z,77.97
2019-04-14T07:14:52.054Z,77.39
2019-04-14T07:17:21.437Z,76.59
2019-04-14T07:20:01.298Z,76.17
2019-04-14T07:22:22.560Z,76.65
2019-04-14T07:24:51.972Z,75.54
2019-04-14T07:27:21.356Z,74.34
2019-04-14T07:30:07.688Z,74.08
2019-04-14T07:32:38.873Z,74.67
2019-04-14T07:35:25.038Z,74.86
2019-04-14T07:37:58.994Z,74.42
2019-04-14T07:40:33.516Z,74.28
2019-04-14T07:43:10.185Z,73.91
2019-04-14T07:45:41.493Z,72.67
2019-04-14T07:48:12.655Z,71.94
2019-04-14T07:50:56.070Z,71.14
2019-04-14T07:53:28.871Z,70.58
2019-04-14T07:56:15.103Z,70.44
2019-04-14T07:58:55.412Z,70.01
2019-04-14T08:01:29.872Z,69.40
2019-04-14T08:04:03.593Z,68.88
2019-04-14T08:06:33.430Z,68.81
2019-04-14T08:09:03.015Z,68.53
2019-04-14T08:11:34.096Z,68.34
2019-04-14T08:14:03.482Z,68.01
2019-04-14T08:16:33.168Z,66.81
2019-04-14T08:19:03.200Z,66.81
2019-04-14T08:21:32.885Z,67.19
2019-04-14T08:24:02.266Z,67.38
2019-04-14T08:26:32.892Z,66.87
2019-04-14T08:29:02.250Z,66.74
2019-04-14T08:31:35.625Z,66.03
2019-04-14T08:34:05.064Z,65.09
2019-04-14T08:36:34.451Z,65.09
2019-04-14T08:39:05.411Z,64.12
2019-04-14T08:41:36.935Z,64.12
2019-04-14T08:44:07.922Z,63.18
2019-04-14T08:46:41.913Z,62.97
2019-04-14T08:49:18.737Z,62.70
2019-04-14T08:52:06.390Z,62.27
2019-04-14T08:54:37.703Z,62.33
2019-04-14T08:57:25.210Z,61.75
2019-04-14T08:59:58.970Z,61.53
2019-04-14T09:02:30.294Z,60.19
2019-04-14T09:05:13.524Z,59.75
2019-04-14T09:07:48.040Z,58.83
2019-04-14T09:10:19.059Z,60.38
2019-04-14T09:12:52.568Z,59.00
2019-04-14T09:15:22.234Z,59.23
2019-04-14T09:17:51.436Z,59.75
2019-04-14T09:20:21.349Z,59.45
2019-04-14T09:22:50.733Z,58.33
2019-04-14T09:25:20.407Z,58.59
2019-04-14T09:27:50.044Z,58.99
2019-04-14T09:30:19.640Z,59.15
2019-04-14T09:32:49.092Z,57.79
2019-04-14T09:35:19.446Z,58.32
2019-04-14T09:37:50.091Z,58.87
2019-04-14T09:40:19.664Z,58.92
2019-04-14T09:42:49.241Z,58.66
2019-04-14T09:45:19.539Z,59.28
2019-04-14T09:47:49.293Z,58.61
2019-04-14T09:50:19.635Z,57.04
2019-04-14T09:52:49.315Z,55.83
2019-04-14T09:55:19.585Z,56.34
2019-04-14T09:57:49.194Z,55.94
2019-04-14T10:00:19.580Z,54.80
2019-04-14T10:02:49.211Z,55.15
2019-04-14T10:05:19.488Z,55.16
2019-04-14T10:07:49.221Z,55.10
2019-04-14T10:10:19.542Z,53.84
2019-04-14T10:12:49.540Z,53.08
2019-04-14T10:15:19.732Z,53.75
2019-04-14T10:17:49.296Z,54.00
2019-04-14T10:20:20.548Z,54.61
2019-04-14T10:22:52.381Z,54.00
2019-04-14T10:25:21.747Z,54.00
2019-04-14T10:27:52.234Z,53.49
2019-04-14T10:30:21.618Z,54.01
2019-04-14T10:32:51.619Z,54.57
2019-04-14T10:35:21.475Z,54.33
2019-04-14T10:37:51.480Z,53.80
2019-04-14T10:40:21.426Z,52.66
2019-04-14T10:42:50.797Z,52.40
2019-04-14T10:45:20.489Z,51.62
2019-04-14T10:47:50.156Z,53.72
2019-04-14T10:50:30.289Z,54.06
2019-04-14T10:52:50.758Z,53.75
2019-04-14T10:55:20.455Z,53.92
2019-04-14T10:57:50.400Z,54.29
2019-04-14T11:00:19.880Z,54.92
2019-04-14T11:02:49.396Z,53.95
2019-04-14T11:05:19.602Z,53.20
2019-04-14T11:07:49.536Z,53.70
2019-04-14T11:10:19.654Z,53.67
2019-04-14T11:12:49.338Z,53.64
2019-04-14T11:15:20.068Z,53.91
2019-04-14T11:17:49.442Z,54.32
2019-04-14T11:20:19.644Z,54.16
2019-04-14T11:22:49.657Z,54.54
2019-04-14T11:25:19.720Z,53.99
2019-04-14T11:27:50.414Z,54.66
2019-04-14T11:30:21.496Z,54.05
2019-04-14T11:33:07.504Z,54.63
2019-04-14T11:35:44.359Z,54.84
2019-04-14T11:38:15.372Z,55.03
2019-04-14T11:40:55.199Z,54.81
2019-04-14T11:43:24.855Z,55.51
2019-04-14T11:45:54.906Z,56.43
2019-04-14T11:48:24.637Z,55.42
2019-04-14T11:50:54.349Z,55.95
2019-04-14T11:53:24.252Z,56.92
2019-04-14T11:55:53.621Z,56.79
2019-04-14T11:58:23.020Z,56.21
2019-04-14T12:01:11.998Z,55.50
2019-04-14T12:03:49.416Z,55.39
2019-04-14T12:06:21.436Z,56.26
2019-04-14T12:08:52.448Z,56.23
2019-04-14T12:11:21.980Z,55.24
2019-04-14T12:13:51.421Z,55.61
2019-04-14T12:16:21.112Z,55.65
2019-04-14T12:18:50.486Z,56.26
2019-04-14T12:21:19.900Z,55.93
2019-04-14T12:23:49.401Z,55.62
2019-04-14T12:26:19.918Z,55.80
2019-04-14T12:28:49.503Z,55.00
2019-04-14T12:31:21.833Z,55.00
2019-04-14T12:33:51.555Z,54.35
2019-04-14T12:36:21.509Z,54.56
2019-04-14T12:38:52.108Z,54.74
2019-04-14T12:41:39.754Z,54.47
2019-04-14T12:44:27.486Z,54.35
2019-04-14T12:47:01.270Z,54.29
2019-04-14T12:49:44.294Z,54.74
2019-04-14T12:52:21.393Z,55.00
2019-04-14T12:54:49.767Z,56.05
2019-04-14T12:57:36.408Z,55.44
2019-04-14T13:00:08.455Z,56.18
2019-04-14T13:02:39.458Z,56.97
2019-04-14T13:05:09.863Z,56.42
2019-04-14T13:07:39.553Z,56.10
2019-04-14T13:10:09.100Z,56.48
2019-04-14T13:12:38.543Z,56.57
2019-04-14T13:15:07.946Z,57.33
2019-04-14T13:17:37.610Z,57.88
2019-04-14T13:20:08.155Z,58.65
2019-04-14T13:22:37.819Z,58.46
2019-04-14T13:25:08.156Z,58.46
2019-04-14T13:27:37.872Z,58.53
2019-04-14T13:30:10.070Z,58.84
2019-04-14T13:32:39.530Z,59.59
2019-04-14T13:35:08.990Z,59.52
2019-04-14T13:37:38.831Z,59.93
2019-04-14T13:40:08.552Z,60.20
2019-04-14T13:42:37.918Z,60.65
2019-04-14T13:45:08.037Z,60.90
2019-04-14T13:47:37.537Z,60.90
2019-04-14T13:50:06.999Z,61.29
2019-04-14T13:52:46.685Z,62.61
2019-04-14T13:55:09.174Z,62.13
2019-04-14T13:57:38.564Z,62.13
2019-04-14T14:00:10.980Z,61.93
2019-04-14T14:02:41.023Z,61.93
2019-04-14T14:05:10.795Z,62.26
2019-04-14T14:07:40.241Z,62.26
2019-04-14T14:10:10.481Z,62.17
2019-04-14T14:12:58.015Z,61.97
2019-04-14T14:15:41.342Z,62.85
2019-04-14T14:18:28.466Z,63.55
2019-04-14T14:21:11.389Z,63.55
2019-04-14T14:23:58.456Z,64.33
2019-04-14T14:26:35.430Z,65.08
2019-04-14T14:29:05.322Z,66.36
2019-04-14T14:31:35.040Z,66.89
2019-04-14T14:34:04.828Z,67.67
2019-04-14T14:36:34.271Z,68.41
2019-04-14T14:39:06.026Z,68.64
2019-04-14T14:41:36.099Z,68.94
2019-04-14T14:44:06.131Z,69.06
2019-04-14T14:46:46.080Z,69.33
2019-04-14T14:49:33.491Z,70.69
2019-04-14T14:52:10.051Z,70.99
2019-04-14T14:54:40.032Z,70.99
2019-04-14T14:57:09.995Z,71.09
2019-04-14T14:59:39.375Z,70.69
2019-04-14T15:02:08.909Z,71.07
2019-04-14T15:04:38.320Z,72.29
2019-04-14T15:07:07.944Z,72.67
2019-04-14T15:09:37.607Z,72.21
2019-04-14T15:12:07.213Z,72.16
2019-04-14T15:14:37.204Z,72.67
2019-04-14T15:17:08.398Z,73.42
2019-04-14T15:19:38.454Z,73.94
2019-04-14T15:22:08.119Z,73.99
2019-04-14T15:24:38.594Z,73.98
2019-04-14T15:27:08.027Z,74.55
2019-04-14T15:29:38.036Z,74.42
2019-04-14T15:32:07.394Z,74.75
2019-04-14T15:34:37.037Z,75.21
2019-04-14T15:37:06.558Z,75.92
2019-04-14T15:39:37.721Z,76.54
2019-04-14T15:42:07.171Z,77.05
2019-04-14T15:44:37.116Z,77.33
2019-04-14T15:47:06.525Z,77.83
2019-04-14T15:49:36.210Z,77.54
2019-04-14T15:52:05.568Z,77.73
2019-04-14T15:54:35.255Z,78.08
2019-04-14T15:57:07.376Z,78.79
2019-04-14T15:59:54.972Z,78.98
2019-04-14T16:02:43.895Z,77.60
2019-04-14T16:05:14.889Z,77.57
2019-04-14T16:07:45.920Z,77.60
2019-04-14T16:10:33.194Z,77.74
2019-04-14T16:13:22.196Z,78.00
2019-04-14T16:15:56.175Z,78.50
2019-04-14T16:18:28.769Z,78.55
2019-04-14T16:20:58.432Z,78.79
2019-04-14T16:23:28.261Z,79.22
2019-04-14T16:25:59.572Z,79.81
2019-04-14T16:28:38.194Z,80.28
2019-04-14T16:31:24.713Z,80.39
2019-04-14T16:34:11.790Z,80.77
2019-04-14T16:36:43.313Z,81.33
2019-04-14T16:39:12.829Z,81.33
2019-04-14T16:41:42.245Z,81.21
2019-04-14T16:44:11.595Z,81.37
2019-04-14T16:46:41.043Z,82.35
2019-04-14T16:49:10.746Z,82.35
2019-04-14T16:51:44.662Z,82.34
2019-04-14T16:54:31.780Z,82.70
2019-04-14T16:57:19.027Z,82.70
2019-04-14T16:59:48.671Z,82.71
2019-04-14T17:02:18.188Z,83.48
2019-04-14T17:04:47.561Z,83.48
2019-04-14T17:07:17.128Z,83.85
2019-04-14T17:09:46.778Z,83.85
2019-04-14T17:12:18.198Z,84.14
2019-04-14T17:14:49.165Z,84.45
2019-04-14T17:17:20.207Z,84.58
2019-04-14T17:20:00.349Z,85.00
2019-04-14T17:22:32.906Z,84.95
2019-04-14T17:25:09.821Z,85.09
2019-04-14T17:27:44.327Z,85.09
2019-04-14T17:30:19.187Z,85.37
2019-04-14T17:32:52.918Z,85.77
2019-04-14T17:35:30.171Z,85.66
2019-04-14T17:38:07.172Z,85.66
2019-04-14T17:40:56.396Z,85.39
2019-04-14T17:43:33.731Z,85.40
2019-04-14T17:46:05.897Z,85.47
2019-04-14T17:48:40.483Z,85.28
2019-04-14T17:51:14.466Z,85.24
2019-04-14T17:53:48.679Z,85.02
2019-04-14T17:56:28.932Z,85.08
2019-04-14T17:59:00.234Z,84.98
2019-04-14T18:01:33.915Z,85.27
2019-04-14T18:04:05.701Z,85.50
2019-04-14T18:06:42.991Z,85.55
2019-04-14T18:09:16.972Z,85.47
2019-04-14T18:11:56.712Z,85.43
2019-04-14T18:14:40.094Z,85.43
2019-04-14T18:17:20.888Z,85.37
2019-04-14T18:19:51.902Z,85.24
2019-04-14T18:22:21.606Z,85.21
2019-04-14T18:24:51.537Z,85.20
2019-04-14T18:27:22.787Z,84.95
2019-04-14T18:29:56.915Z,85.25
2019-04-14T18:32:37.051Z,85.42
2019-04-14T18:35:23.133Z,85.52
2019-04-14T18:38:03.556Z,85.46
2019-04-14T18:40:35.467Z,85.20
2019-04-14T18:43:06.703Z,85.13
2019-04-14T18:45:51.023Z,85.06
2019-04-14T18:48:35.349Z,85.09
2019-04-14T18:51:19.069Z,85.06
2019-04-14T18:53:53.196Z,85.01
2019-04-14T18:56:27.449Z,85.06
2019-04-14T18:59:12.902Z,85.06
2019-04-14T19:01:53.522Z,84.88
2019-04-14T19:04:23.845Z,84.78
2019-04-14T19:06:53.459Z,84.87
2019-04-14T19:09:23.257Z,84.98
2019-04-14T19:11:56.889Z,84.93
2019-04-14T19:14:28.279Z,84.89
2019-04-14T19:17:11.245Z,84.90
2019-04-14T19:20:01.301Z,84.90
2019-04-14T19:22:22.649Z,84.85
2019-04-14T19:24:52.013Z,84.88
2019-04-14T19:27:22.763Z,85.11
2019-04-14T19:29:52.385Z,85.14
2019-04-14T19:32:21.819Z,85.30
2019-04-14T19:34:51.657Z,85.45
2019-04-14T19:37:21.089Z,85.52
2019-04-14T19:39:50.564Z,85.58
2019-04-14T19:42:20.867Z,85.73
2019-04-14T19:44:50.525Z,85.83
2019-04-14T19:47:20.915Z,85.79
2019-04-14T19:49:51.425Z,85.76
2019-04-14T19:52:21.809Z,85.86
2019-04-14T19:54:51.696Z,85.83
2019-04-14T19:57:22.176Z,85.81
2019-04-14T19:59:52.442Z,85.96
2019-04-14T20:02:21.803Z,86.10
2019-04-14T20:04:51.472Z,86.03
2019-04-14T20:07:20.885Z,85.96
2019-04-14T20:09:50.554Z,86.11
2019-04-14T20:12:20.877Z,86.11
2019-04-14T20:14:50.595Z,86.27
2019-04-14T20:17:22.520Z,86.31
2019-04-14T20:19:59.256Z,86.24
2019-04-14T20:22:30.566Z,86.37
2019-04-14T20:25:01.847Z,86.43
2019-04-14T20:27:36.832Z,86.38
2019-04-14T20:30:20.949Z,86.32
2019-04-14T20:32:50.842Z,86.21
2019-04-14T20:35:20.940Z,86.15
2019-04-14T20:37:50.562Z,86.11
2019-04-14T20:40:20.906Z,86.03
2019-04-14T20:42:50.586Z,86.16
2019-04-14T20:45:20.985Z,86.16
2019-04-14T20:47:50.611Z,86.06
2019-04-14T20:50:21.004Z,85.99
2019-04-14T20:52:50.568Z,86.08
2019-04-14T20:55:21.175Z,86.20
2019-04-14T20:57:51.288Z,86.38
2019-04-14T21:00:21.831Z,86.56
2019-04-14T21:03:10.731Z,86.71
2019-04-14T21:05:41.774Z,86.88
2019-04-14T21:08:31.068Z,87.17
2019-04-14T21:11:02.439Z,87.28
2019-04-14T21:13:33.452Z,87.43
2019-04-14T21:16:13.329Z,87.66
2019-04-14T21:18:47.280Z,87.94
2019-04-14T21:21:20.921Z,88.05
2019-04-14T21:23:54.629Z,88.09
2019-04-14T21:26:26.443Z,88.18
2019-04-14T21:29:03.911Z,88.20
2019-04-14T21:31:51.158Z,88.25
2019-04-14T21:34:22.796Z,88.23
2019-04-14T21:36:56.916Z,88.29
2019-04-14T21:39:40.502Z,88.39
2019-04-14T21:42:08.974Z,88.35
2019-04-14T21:44:38.359Z,88.25
2019-04-14T21:47:07.898Z,88.26
2019-04-14T21:49:37.291Z,88.30
2019-04-14T21:52:11.389Z,88.18
2019-04-14T21:54:42.677Z,88.42
2019-04-14T21:57:13.684Z,88.40
2019-04-14T22:00:00.674Z,88.45
2019-04-14T22:02:48.453Z,88.46
2019-04-14T22:05:22.043Z,88.44
2019-04-14T22:08:02.511Z,88.51
2019-04-14T22:10:36.758Z,88.52
2019-04-14T22:13:06.156Z,88.54
2019-04-14T22:15:35.578Z,88.67
2019-04-14T22:18:04.989Z,88.74
2019-04-14T22:20:34.361Z,88.76
2019-04-14T22:23:05.563Z,88.90
2019-04-14T22:25:35.173Z,89.10
2019-04-14T22:28:05.133Z,89.12
2019-04-14T22:30:34.515Z,89.12
2019-04-14T22:33:04.623Z,89.16
2019-04-14T22:35:35.071Z,89.16
2019-04-14T22:38:04.429Z,89.24
2019-04-14T22:40:34.115Z,89.25
2019-04-14T22:43:04.044Z,89.33
2019-04-14T22:45:34.462Z,89.44
2019-04-14T22:48:04.292Z,89.51
2019-04-14T22:50:33.977Z,89.46
2019-04-14T22:53:03.401Z,89.44
2019-04-14T22:55:34.222Z,89.41
2019-04-14T22:58:03.950Z,89.42
2019-04-14T23:00:49.850Z,89.26
2019-04-14T23:03:39.746Z,89.26
2019-04-14T23:06:22.350Z,89.35
2019-04-14T23:08:54.610Z,89.28
2019-04-14T23:11:31.797Z,89.15
2019-04-14T23:14:02.825Z,89.07
2019-04-14T23:16:37.036Z,89.05
2019-04-14T23:19:14.460Z,89.12
2019-04-14T23:21:51.321Z,89.40
2019-04-14T23:24:23.929Z,89.40
2019-04-14T23:26:53.467Z,89.32
2019-04-14T23:29:23.152Z,89.42
2019-04-14T23:31:52.536Z,89.43
2019-04-14T23:34:22.473Z,89.50
2019-04-14T23:36:52.306Z,89.43
2019-04-14T23:39:21.698Z,89.44
2019-04-14T23:41:51.157Z,89.43
2019-04-14T23:44:21.485Z,89.41
2019-04-14T23:46:51.082Z,89.36
2019-04-14T23:49:21.419Z,89.30
2019-04-14T23:51:51.665Z,89.27
2019-04-14T23:54:21.555Z,89.57
2019-04-14T23:57:04.463Z,89.57
2019-04-14T23:59:22.532Z,89.33
